Anglesea, New Jersey
Current Conditions -  °F | °C
As of 10:55 PM on Wednesday 17 Dec 2014 (Local Time) from KWWD Reporting Station
Clear Clear  
Wind Chill: 32°   Ceiling: Unl
Heat Index: 39°   Visibility: 10mi
Dew Point: 27°   Wind: 10mph
Humidity: 61%   Direction: 300°WNW
Pressure: 29.97"   Gusts: 21mph
Location:  38.9808°N, 74.8281°W
Report Text: KWWD 180355Z AUTO 30009G18KT 10SM CLR 04/M03 A2997 RMK AO1
Loading
Personal Weather Stations






























Interactive Weather Map New forecast layout! Learn more

10-Day Weather Forecast

Advertisements
Track Severe Weather on mobile